createdAt,value
2022-08-26T00:00:50.976Z,88.64
2022-08-26T00:01:53.973Z,88.99
2022-08-26T00:02:56.692Z,88.78
2022-08-26T00:04:01.505Z,88.42
2022-08-26T00:05:04.096Z,88.21
2022-08-26T00:06:07.373Z,88.30
2022-08-26T00:07:10.570Z,88.97
2022-08-26T00:08:13.218Z,88.80
2022-08-26T00:09:16.103Z,88.73
2022-08-26T00:10:18.815Z,88.73
2022-08-26T00:11:26.673Z,88.41
2022-08-26T00:12:37.471Z,88.45
2022-08-26T00:13:40.265Z,88.38
2022-08-26T00:14:49.956Z,88.84
2022-08-26T00:15:51.808Z,89.00
2022-08-26T00:16:53.671Z,88.76
2022-08-26T00:17:57.140Z,88.58
2022-08-26T00:18:59.293Z,88.36
2022-08-26T00:20:01.245Z,88.20
2022-08-26T00:21:06.236Z,88.35
2022-08-26T00:22:08.547Z,88.35
2022-08-26T00:23:10.360Z,88.61
2022-08-26T00:24:13.489Z,88.57
2022-08-26T00:25:15.888Z,88.67
2022-08-26T00:26:19.169Z,88.68
2022-08-26T00:27:22.659Z,88.53
2022-08-26T00:28:24.499Z,88.31
2022-08-26T00:29:26.336Z,88.17
2022-08-26T00:30:29.362Z,88.42
2022-08-26T00:31:32.707Z,88.40
2022-08-26T00:32:34.965Z,88.29
2022-08-26T00:33:39.963Z,88.18
2022-08-26T00:34:41.948Z,88.20
2022-08-26T00:35:43.905Z,88.17
2022-08-26T00:36:51.745Z,87.95
2022-08-26T00:37:54.043Z,88.03
2022-08-26T00:38:56.582Z,87.83
2022-08-26T00:40:00.787Z,87.69
2022-08-26T00:41:06.909Z,87.73
2022-08-26T00:42:08.740Z,87.50
2022-08-26T00:43:10.630Z,87.57
2022-08-26T00:44:13.051Z,87.74
2022-08-26T00:45:16.040Z,87.69
2022-08-26T00:46:21.964Z,87.70
2022-08-26T00:47:31.018Z,87.75
2022-08-26T00:48:34.408Z,87.99
2022-08-26T00:49:39.021Z,87.79
2022-08-26T00:50:43.076Z,87.99
2022-08-26T00:51:49.867Z,88.04
2022-08-26T00:52:52.615Z,88.24
2022-08-26T00:53:57.593Z,88.12
2022-08-26T00:55:02.821Z,88.18
2022-08-26T00:56:08.380Z,88.08
2022-08-26T00:57:16.512Z,87.98
2022-08-26T00:58:18.545Z,88.17
2022-08-26T00:59:20.943Z,88.09
2022-08-26T01:00:25.186Z,88.01
2022-08-26T01:01:28.618Z,88.25
2022-08-26T01:02:32.583Z,88.33
2022-08-26T01:03:34.965Z,88.34
2022-08-26T01:04:37.958Z,88.22
2022-08-26T01:05:41.330Z,88.12
2022-08-26T01:06:44.425Z,88.12
2022-08-26T01:07:46.503Z,88.01
2022-08-26T01:08:48.541Z,88.23
2022-08-26T01:09:50.458Z,88.47
2022-08-26T01:10:54.930Z,88.25
2022-08-26T01:11:59.119Z,88.30
2022-08-26T01:13:03.482Z,88.26
2022-08-26T01:14:06.788Z,88.37
2022-08-26T01:15:10.736Z,88.46
2022-08-26T01:16:14.653Z,88.33
2022-08-26T01:17:16.973Z,88.18
2022-08-26T01:18:18.896Z,87.91
2022-08-26T01:19:23.916Z,87.88
2022-08-26T01:20:38.790Z,88.04
2022-08-26T01:21:44.188Z,87.75
2022-08-26T01:23:01.653Z,87.70
2022-08-26T01:24:05.711Z,87.48
2022-08-26T01:25:07.678Z,87.50
2022-08-26T01:26:19.412Z,87.26
2022-08-26T01:27:22.239Z,87.03
2022-08-26T01:28:27.441Z,86.95
2022-08-26T01:29:30.367Z,86.97
2022-08-26T01:30:33.428Z,86.97
2022-08-26T01:31:39.067Z,87.15
2022-08-26T01:32:41.976Z,87.24
2022-08-26T01:33:48.505Z,87.36
2022-08-26T01:34:52.039Z,87.28
2022-08-26T01:35:53.843Z,87.39
2022-08-26T01:37:15.924Z,87.46
2022-08-26T01:38:18.847Z,87.37
2022-08-26T01:39:20.855Z,87.28
2022-08-26T01:40:26.736Z,87.19
2022-08-26T01:41:29.313Z,87.19
2022-08-26T01:42:31.721Z,87.10
2022-08-26T01:43:34.624Z,87.19
2022-08-26T01:44:39.853Z,86.92
2022-08-26T01:45:42.556Z,87.04
2022-08-26T01:46:47.251Z,86.97
2022-08-26T01:47:56.814Z,87.03
2022-08-26T01:49:01.632Z,87.12
2022-08-26T01:50:05.441Z,87.08
2022-08-26T01:51:09.919Z,86.94
2022-08-26T01:52:14.548Z,86.94
2022-08-26T01:53:18.898Z,86.68
2022-08-26T01:54:23.992Z,86.71
2022-08-26T01:55:32.402Z,86.67
2022-08-26T01:56:36.742Z,86.92
2022-08-26T01:57:38.586Z,86.93
2022-08-26T01:58:43.779Z,86.80
2022-08-26T01:59:46.967Z,86.71
2022-08-26T02:00:49.279Z,86.85
2022-08-26T02:01:53.244Z,86.89
2022-08-26T02:03:17.088Z,86.75
2022-08-26T02:04:39.764Z,86.81
2022-08-26T02:05:41.995Z,86.66
2022-08-26T02:06:45.589Z,86.77
2022-08-26T02:07:48.486Z,86.54
2022-08-26T02:08:54.607Z,86.35
2022-08-26T02:09:57.086Z,86.75
2022-08-26T02:10:59.081Z,86.70
2022-08-26T02:12:01.808Z,86.75
2022-08-26T02:13:04.385Z,87.00
2022-08-26T02:14:10.247Z,87.32
2022-08-26T02:15:12.825Z,87.75
2022-08-26T02:16:16.648Z,87.60
2022-08-26T02:17:21.164Z,87.48
2022-08-26T02:18:23.493Z,87.44
2022-08-26T02:19:31.463Z,87.64
2022-08-26T02:20:33.716Z,87.83
2022-08-26T02:21:36.129Z,88.01
2022-08-26T02:22:38.941Z,87.89
2022-08-26T02:23:43.072Z,87.71
2022-08-26T02:24:52.937Z,87.67
2022-08-26T02:26:05.049Z,87.76
2022-08-26T02:27:06.835Z,87.85
2022-08-26T02:28:09.905Z,87.74
2022-08-26T02:29:18.298Z,87.68
2022-08-26T02:30:32.379Z,87.56
2022-08-26T02:31:34.153Z,87.38
2022-08-26T02:32:36.835Z,87.62
2022-08-26T02:33:43.111Z,87.77
2022-08-26T02:34:46.179Z,87.79
2022-08-26T02:35:48.455Z,88.23
2022-08-26T02:36:50.873Z,88.24
2022-08-26T02:37:53.518Z,88.08
2022-08-26T02:38:55.335Z,88.10
2022-08-26T02:39:57.620Z,88.19
2022-08-26T02:40:59.619Z,88.03
2022-08-26T02:42:01.661Z,88.33
2022-08-26T02:43:04.071Z,88.27
2022-08-26T02:44:10.561Z,88.30
2022-08-26T02:45:13.116Z,88.59
2022-08-26T02:46:27.711Z,88.94
2022-08-26T02:47:32.583Z,88.91
2022-08-26T02:48:34.608Z,89.33
2022-08-26T02:49:37.940Z,89.60
2022-08-26T02:50:40.457Z,89.50
2022-08-26T02:51:44.484Z,89.53
2022-08-26T02:52:46.661Z,89.29
2022-08-26T02:53:48.553Z,89.64
2022-08-26T02:54:50.463Z,89.59
2022-08-26T02:55:52.655Z,89.52
2022-08-26T02:56:55.088Z,89.55
2022-08-26T02:57:56.889Z,89.47
2022-08-26T02:58:58.721Z,89.20
2022-08-26T03:00:01.866Z,89.03
2022-08-26T03:01:05.402Z,88.87
2022-08-26T03:02:11.246Z,88.78
2022-08-26T03:03:13.393Z,88.60
2022-08-26T03:04:15.484Z,88.46
2022-08-26T03:05:18.192Z,88.28
2022-08-26T03:06:20.346Z,88.27
2022-08-26T03:07:22.124Z,88.44
2022-08-26T03:08:24.273Z,88.67
2022-08-26T03:09:27.196Z,88.64
2022-08-26T03:10:29.590Z,88.41
2022-08-26T03:11:33.130Z,88.40
2022-08-26T03:12:35.641Z,88.51
2022-08-26T03:13:38.042Z,88.47
2022-08-26T03:14:40.448Z,88.57
2022-08-26T03:15:42.322Z,88.61
2022-08-26T03:16:44.770Z,88.64
2022-08-26T03:17:50.563Z,88.57
2022-08-26T03:18:52.628Z,88.61
2022-08-26T03:19:54.764Z,88.53
2022-08-26T03:20:59.888Z,88.73
2022-08-26T03:22:04.265Z,88.84
2022-08-26T03:23:06.946Z,88.68
2022-08-26T03:24:10.253Z,88.57
2022-08-26T03:25:13.632Z,88.54
2022-08-26T03:26:17.810Z,88.42
2022-08-26T03:27:19.889Z,88.50
2022-08-26T03:28:22.577Z,88.52
2022-08-26T03:29:43.513Z,88.54
2022-08-26T03:30:45.758Z,88.72
2022-08-26T03:31:47.747Z,88.56
2022-08-26T03:32:49.747Z,88.36
2022-08-26T03:33:51.898Z,88.36
2022-08-26T03:34:54.060Z,88.51
2022-08-26T03:35:55.931Z,88.59
2022-08-26T03:36:58.888Z,88.51
2022-08-26T03:38:01.167Z,88.67
2022-08-26T03:39:03.784Z,88.46
2022-08-26T03:40:08.337Z,88.63
2022-08-26T03:41:12.041Z,88.84
2022-08-26T03:42:15.102Z,89.04
2022-08-26T03:43:17.779Z,88.98
2022-08-26T03:44:19.995Z,89.39
2022-08-26T03:45:22.185Z,89.10
2022-08-26T03:46:24.459Z,89.24
2022-08-26T03:47:28.627Z,89.16
2022-08-26T03:48:30.459Z,89.00
2022-08-26T03:49:32.336Z,88.82
2022-08-26T03:50:35.934Z,88.76
2022-08-26T03:51:39.034Z,88.96
2022-08-26T03:52:43.876Z,88.99
2022-08-26T03:53:46.409Z,88.95
2022-08-26T03:54:48.343Z,88.80
2022-08-26T03:55:51.757Z,88.73
2022-08-26T03:56:54.244Z,88.42
2022-08-26T03:57:56.065Z,88.71
2022-08-26T03:58:57.866Z,88.83
2022-08-26T04:00:00.753Z,88.83
2022-08-26T04:01:02.570Z,88.75
2022-08-26T04:02:11.358Z,88.80
2022-08-26T04:03:33.550Z,89.12
2022-08-26T04:04:35.707Z,89.30
2022-08-26T04:05:37.991Z,89.04
2022-08-26T04:06:44.800Z,89.22
2022-08-26T04:07:47.343Z,89.17
2022-08-26T04:08:50.752Z,89.03
2022-08-26T04:09:59.041Z,88.83
2022-08-26T04:11:01.520Z,88.86
2022-08-26T04:12:04.186Z,88.54
2022-08-26T04:13:06.764Z,88.50
2022-08-26T04:14:10.856Z,88.45
2022-08-26T04:15:14.382Z,88.40
2022-08-26T04:16:17.535Z,88.46
2022-08-26T04:17:19.736Z,88.46
2022-08-26T04:18:31.461Z,88.60
2022-08-26T04:19:39.072Z,88.67
2022-08-26T04:20:40.999Z,88.67
2022-08-26T04:21:42.934Z,88.66
2022-08-26T04:22:45.512Z,88.64
2022-08-26T04:23:48.095Z,88.76
2022-08-26T04:24:49.973Z,88.85
2022-08-26T04:25:51.950Z,88.79
2022-08-26T04:26:54.100Z,88.62
2022-08-26T04:27:55.945Z,88.61
2022-08-26T04:28:59.247Z,88.64
2022-08-26T04:30:01.294Z,88.71
2022-08-26T04:31:03.297Z,88.75
2022-08-26T04:32:05.306Z,88.81
2022-08-26T04:33:12.905Z,88.84
2022-08-26T04:34:15.253Z,89.06
2022-08-26T04:35:18.077Z,88.93
2022-08-26T04:36:20.331Z,88.98
2022-08-26T04:37:22.645Z,89.06
2022-08-26T04:38:24.631Z,89.22
2022-08-26T04:39:27.748Z,89.15
2022-08-26T04:40:29.822Z,89.23
2022-08-26T04:41:31.800Z,89.42
2022-08-26T04:42:33.610Z,89.45
2022-08-26T04:43:37.578Z,89.45
2022-08-26T04:44:40.086Z,89.44
2022-08-26T04:45:42.128Z,89.35
2022-08-26T04:46:44.196Z,89.48
2022-08-26T04:47:47.033Z,89.34
2022-08-26T04:48:51.301Z,89.47
2022-08-26T04:49:58.044Z,89.69
2022-08-26T04:51:00.262Z,89.64
2022-08-26T04:52:02.240Z,89.56
2022-08-26T04:53:04.970Z,89.74
2022-08-26T04:54:08.897Z,89.52
2022-08-26T04:55:10.866Z,89.68
2022-08-26T04:56:13.307Z,89.93
2022-08-26T04:57:15.355Z,90.12
2022-08-26T04:58:19.278Z,90.16
2022-08-26T04:59:21.203Z,90.30
2022-08-26T05:00:23.662Z,90.39
2022-08-26T05:01:28.676Z,90.35
2022-08-26T05:02:31.834Z,90.60
2022-08-26T05:03:35.521Z,90.54
2022-08-26T05:04:37.925Z,90.37
2022-08-26T05:05:43.821Z,90.30
2022-08-26T05:06:45.697Z,90.15
2022-08-26T05:07:47.537Z,90.11
2022-08-26T05:08:51.782Z,90.08
2022-08-26T05:09:55.155Z,89.99
2022-08-26T05:10:56.996Z,90.19
2022-08-26T05:11:58.773Z,90.00
2022-08-26T05:13:00.868Z,90.28
2022-08-26T05:14:02.673Z,90.30
2022-08-26T05:15:04.698Z,90.30
2022-08-26T05:16:08.848Z,90.40
2022-08-26T05:17:15.096Z,90.44
2022-08-26T05:18:19.994Z,90.38
2022-08-26T05:19:22.306Z,90.45
2022-08-26T05:20:25.791Z,90.80
2022-08-26T05:21:29.316Z,90.65
2022-08-26T05:22:31.346Z,90.68
2022-08-26T05:23:35.387Z,90.64
2022-08-26T05:24:37.430Z,90.43
2022-08-26T05:25:42.190Z,90.71
2022-08-26T05:26:44.876Z,90.48
2022-08-26T05:27:47.242Z,90.73
2022-08-26T05:28:49.518Z,90.62
2022-08-26T05:29:54.434Z,90.58
2022-08-26T05:30:57.162Z,90.54
2022-08-26T05:32:00.962Z,90.51
2022-08-26T05:33:02.967Z,90.44
2022-08-26T05:34:05.198Z,90.52
2022-08-26T05:35:08.762Z,90.63
2022-08-26T05:36:12.638Z,90.45
2022-08-26T05:37:15.843Z,90.52
2022-08-26T05:38:20.109Z,90.61
2022-08-26T05:39:23.806Z,90.53
2022-08-26T05:40:25.651Z,90.39
2022-08-26T05:41:34.355Z,90.57
2022-08-26T05:42:38.589Z,90.51
2022-08-26T05:43:40.394Z,90.31
2022-08-26T05:44:55.627Z,90.23
2022-08-26T05:46:05.927Z,90.32
2022-08-26T05:47:07.916Z,90.00
2022-08-26T05:48:11.368Z,89.91
2022-08-26T05:49:14.381Z,89.79
2022-08-26T05:50:22.054Z,89.83
2022-08-26T05:51:26.087Z,89.68
2022-08-26T05:52:28.217Z,89.57
2022-08-26T05:53:30.026Z,89.52
2022-08-26T05:54:34.129Z,89.32
2022-08-26T05:55:41.543Z,89.57
2022-08-26T05:56:43.450Z,89.35
2022-08-26T05:57:48.168Z,89.44
2022-08-26T05:58:50.018Z,89.52
2022-08-26T05:59:52.228Z,89.53
2022-08-26T06:00:59.087Z,89.61
2022-08-26T06:02:02.408Z,89.35
2022-08-26T06:03:04.419Z,89.33
2022-08-26T06:04:07.116Z,89.23
2022-08-26T06:05:09.067Z,89.35
2022-08-26T06:06:15.113Z,89.43
2022-08-26T06:07:41.914Z,89.16
2022-08-26T06:08:44.451Z,89.19
2022-08-26T06:09:46.342Z,89.21
2022-08-26T06:10:49.550Z,89.30
2022-08-26T06:11:52.738Z,89.19
2022-08-26T06:12:55.530Z,89.24
2022-08-26T06:14:03.139Z,89.16
2022-08-26T06:15:05.821Z,89.03
2022-08-26T06:16:09.245Z,89.11
2022-08-26T06:17:11.123Z,89.04
2022-08-26T06:18:16.269Z,88.96
2022-08-26T06:19:18.312Z,88.85
2022-08-26T06:20:20.115Z,88.91
2022-08-26T06:21:25.618Z,88.78
2022-08-26T06:22:46.052Z,88.84
2022-08-26T06:24:07.302Z,88.80
2022-08-26T06:25:28.207Z,88.47
2022-08-26T06:26:31.325Z,88.52
2022-08-26T06:27:33.144Z,88.43
2022-08-26T06:28:35.244Z,88.32
2022-08-26T06:29:39.176Z,88.04
2022-08-26T06:30:41.253Z,87.91
2022-08-26T06:31:43.183Z,87.73
2022-08-26T06:32:46.010Z,87.84
2022-08-26T06:33:47.936Z,87.84
2022-08-26T06:34:51.397Z,88.09
2022-08-26T06:35:53.897Z,87.61
2022-08-26T06:36:58.874Z,87.41
2022-08-26T06:38:00.690Z,87.20
2022-08-26T06:39:04.789Z,87.59
2022-08-26T06:40:07.174Z,87.87
2022-08-26T06:41:10.794Z,87.65
2022-08-26T06:42:12.833Z,87.43
2022-08-26T06:43:24.190Z,87.32
2022-08-26T06:44:26.107Z,87.69
2022-08-26T06:45:28.155Z,87.56
2022-08-26T06:46:30.715Z,87.79
2022-08-26T06:47:32.917Z,87.76
2022-08-26T06:48:36.042Z,87.62
2022-08-26T06:49:37.878Z,87.60
2022-08-26T06:50:42.247Z,87.49
2022-08-26T06:51:44.103Z,87.44
2022-08-26T06:52:45.932Z,87.32
2022-08-26T06:53:49.982Z,87.23
2022-08-26T06:54:51.793Z,87.22
2022-08-26T06:55:54.923Z,87.20
2022-08-26T06:56:57.984Z,87.09
2022-08-26T06:57:59.989Z,87.08
2022-08-26T06:59:01.985Z,86.95
2022-08-26T07:00:12.797Z,86.74
2022-08-26T07:01:26.152Z,86.51
2022-08-26T07:02:28.607Z,86.59
2022-08-26T07:03:30.977Z,86.41
2022-08-26T07:04:41.595Z,86.27
2022-08-26T07:05:44.395Z,86.03
2022-08-26T07:06:53.226Z,85.94
2022-08-26T07:07:56.805Z,85.22
2022-08-26T07:09:03.500Z,85.52
2022-08-26T07:10:06.111Z,85.65
2022-08-26T07:11:08.934Z,85.62
2022-08-26T07:12:10.859Z,85.47
2022-08-26T07:13:12.823Z,85.16
2022-08-26T07:14:14.718Z,85.37
2022-08-26T07:15:16.573Z,84.60
2022-08-26T07:16:18.755Z,84.44
2022-08-26T07:17:20.673Z,84.74
2022-08-26T07:18:22.488Z,84.21
2022-08-26T07:19:30.862Z,84.62
2022-08-26T07:20:36.243Z,84.51
2022-08-26T07:21:38.422Z,84.78
2022-08-26T07:22:40.450Z,85.16
2022-08-26T07:23:45.452Z,85.05
2022-08-26T07:24:48.780Z,84.78
2022-08-26T07:25:50.650Z,84.63
2022-08-26T07:26:52.558Z,84.21
2022-08-26T07:27:54.632Z,84.12
2022-08-26T07:28:57.022Z,84.33
2022-08-26T07:29:59.253Z,84.06
2022-08-26T07:31:10.868Z,83.07
2022-08-26T07:32:15.866Z,83.62
2022-08-26T07:33:19.700Z,82.81
2022-08-26T07:34:23.620Z,82.30
2022-08-26T07:35:26.710Z,82.37
2022-08-26T07:36:29.629Z,81.83
2022-08-26T07:37:35.501Z,80.89
2022-08-26T07:38:41.531Z,81.58
2022-08-26T07:39:44.698Z,80.17
2022-08-26T07:40:47.721Z,81.04
2022-08-26T07:41:49.569Z,80.30
2022-08-26T07:42:51.362Z,80.37
2022-08-26T07:43:54.802Z,80.93
2022-08-26T07:44:56.624Z,81.46
2022-08-26T07:45:59.407Z,81.11
2022-08-26T07:47:01.243Z,81.34
2022-08-26T07:48:04.022Z,80.62
2022-08-26T07:49:06.285Z,79.95
2022-08-26T07:50:09.314Z,80.44
2022-08-26T07:51:11.471Z,79.65
2022-08-26T07:52:13.714Z,80.04
2022-08-26T07:53:15.918Z,79.82
2022-08-26T07:54:20.274Z,79.02
2022-08-26T07:55:29.450Z,78.80
2022-08-26T07:56:31.237Z,79.80
2022-08-26T07:57:33.852Z,78.06
2022-08-26T07:58:36.724Z,77.91
2022-08-26T07:59:38.512Z,78.66
2022-08-26T08:00:40.669Z,78.03
2022-08-26T08:01:44.637Z,77.97
2022-08-26T08:02:47.080Z,76.61
2022-08-26T08:03:51.876Z,76.77
2022-08-26T08:04:54.811Z,76.81
2022-08-26T08:05:56.928Z,77.03
2022-08-26T08:06:59.095Z,77.78
2022-08-26T08:08:26.929Z,78.02
2022-08-26T08:09:24.049Z,76.67
2022-08-26T08:10:27.030Z,77.27
2022-08-26T08:11:29.780Z,76.16
2022-08-26T08:12:32.283Z,76.55
2022-08-26T08:13:38.007Z,76.00
2022-08-26T08:14:40.372Z,76.21
2022-08-26T08:15:43.641Z,75.73
2022-08-26T08:16:45.904Z,75.76
2022-08-26T08:17:50.524Z,73.21
2022-08-26T08:18:53.801Z,74.18
2022-08-26T08:19:55.628Z,74.44
2022-08-26T08:21:10.925Z,74.55
2022-08-26T08:22:19.878Z,75.11
2022-08-26T08:23:23.538Z,75.55
2022-08-26T08:24:25.937Z,71.93
2022-08-26T08:25:27.920Z,72.38
2022-08-26T08:26:29.839Z,72.89
2022-08-26T08:27:33.912Z,71.69
2022-08-26T08:28:36.794Z,71.52
2022-08-26T08:29:38.591Z,70.16
2022-08-26T08:30:41.252Z,70.47
2022-08-26T08:31:56.640Z,71.30
2022-08-26T08:33:00.106Z,71.77
2022-08-26T08:34:02.183Z,70.08
2022-08-26T08:35:11.078Z,71.08
2022-08-26T08:36:18.560Z,74.28
2022-08-26T08:37:23.323Z,73.58
2022-08-26T08:38:25.688Z,73.30
2022-08-26T08:39:28.281Z,74.14
2022-08-26T08:40:30.161Z,73.45
2022-08-26T08:41:37.941Z,71.15
2022-08-26T08:42:45.926Z,72.31
2022-08-26T08:43:49.297Z,72.24
2022-08-26T08:44:52.973Z,72.41
2022-08-26T08:45:57.931Z,69.76
2022-08-26T08:47:04.183Z,70.11
2022-08-26T08:48:22.297Z,71.83
2022-08-26T08:49:31.243Z,72.23
2022-08-26T08:50:50.553Z,70.01
2022-08-26T08:52:18.779Z,71.27
2022-08-26T08:53:26.555Z,72.13
2022-08-26T08:54:30.733Z,71.91
2022-08-26T08:55:41.582Z,72.17
2022-08-26T08:56:53.382Z,71.75
2022-08-26T08:58:08.103Z,71.87
2022-08-26T08:59:24.338Z,72.53
2022-08-26T09:00:30.291Z,72.73
2022-08-26T09:01:47.824Z,73.33
2022-08-26T09:02:58.558Z,72.88
2022-08-26T09:04:13.358Z,73.08
2022-08-26T09:05:22.020Z,73.40
2022-08-26T09:06:25.827Z,72.31
2022-08-26T09:07:48.400Z,71.92
2022-08-26T09:08:51.010Z,72.36
2022-08-26T09:10:19.196Z,70.43
2022-08-26T09:11:21.277Z,69.69
2022-08-26T09:12:29.835Z,70.20
2022-08-26T09:13:32.023Z,70.82
2022-08-26T09:14:33.874Z,71.74
2022-08-26T09:15:47.745Z,71.97
2022-08-26T09:16:57.616Z,72.88
2022-08-26T09:18:24.337Z,72.98
2022-08-26T09:19:31.346Z,71.82
2022-08-26T09:20:59.760Z,71.36
2022-08-26T09:22:05.746Z,70.74
2022-08-26T09:23:11.537Z,70.93
2022-08-26T09:24:13.926Z,71.13
2022-08-26T09:25:16.299Z,70.65
2022-08-26T09:26:21.449Z,69.41
2022-08-26T09:27:43.036Z,69.07
2022-08-26T09:28:49.687Z,69.07
2022-08-26T09:29:51.914Z,67.87
2022-08-26T09:31:01.525Z,68.69
2022-08-26T09:32:20.270Z,69.04
2022-08-26T09:33:27.597Z,68.08
2022-08-26T09:34:29.423Z,66.36
2022-08-26T09:35:34.191Z,68.89
2022-08-26T09:36:39.477Z,68.64
2022-08-26T09:38:47.199Z,68.26
2022-08-26T09:39:49.047Z,66.72
2022-08-26T09:40:59.279Z,67.61
2022-08-26T09:42:03.273Z,68.15
2022-08-26T09:43:16.159Z,69.98
2022-08-26T09:44:24.856Z,67.06
2022-08-26T09:45:29.394Z,67.48
2022-08-26T09:46:32.232Z,67.80
2022-08-26T09:47:39.458Z,68.21
2022-08-26T09:48:43.266Z,64.00
2022-08-26T09:49:46.315Z,65.97
2022-08-26T09:50:51.848Z,66.56
2022-08-26T09:52:15.739Z,64.96
2022-08-26T09:53:21.038Z,65.30
2022-08-26T09:54:30.471Z,64.74
2022-08-26T09:55:35.402Z,65.19
2022-08-26T09:56:42.195Z,65.31
2022-08-26T09:57:46.839Z,66.08
2022-08-26T09:58:48.704Z,66.90
2022-08-26T09:59:50.842Z,66.83
2022-08-26T10:00:55.717Z,66.86
2022-08-26T10:02:13.573Z,66.67
2022-08-26T10:03:26.334Z,66.33
2022-08-26T10:04:28.286Z,64.15
2022-08-26T10:05:37.769Z,63.49
2022-08-26T10:06:43.302Z,65.40
2022-08-26T10:07:47.513Z,66.01
2022-08-26T10:08:51.557Z,63.45
2022-08-26T10:09:54.878Z,64.30
2022-08-26T10:10:59.264Z,65.18
2022-08-26T10:12:04.527Z,64.05
2022-08-26T10:13:09.831Z,64.92
2022-08-26T10:14:25.099Z,64.28
2022-08-26T10:15:28.321Z,62.82
2022-08-26T10:16:36.388Z,63.19
2022-08-26T10:17:40.816Z,64.17
2022-08-26T10:18:45.541Z,63.63
2022-08-26T10:19:57.125Z,62.77
2022-08-26T10:21:21.124Z,62.17
2022-08-26T10:22:23.490Z,63.27
2022-08-26T10:23:27.703Z,61.31
2022-08-26T10:24:38.058Z,63.01
2022-08-26T10:25:46.991Z,63.86
2022-08-26T10:27:01.322Z,62.66
2022-08-26T10:28:03.065Z,60.50
2022-08-26T10:29:16.304Z,60.24
2022-08-26T10:30:20.260Z,61.75
2022-08-26T10:31:30.427Z,61.46
2022-08-26T10:32:44.728Z,60.52
2022-08-26T10:33:47.167Z,62.94
2022-08-26T10:34:49.008Z,59.05
2022-08-26T10:35:56.954Z,59.59
2022-08-26T10:37:15.041Z,58.65
2022-08-26T10:38:21.836Z,60.58
2022-08-26T10:39:30.468Z,56.56
2022-08-26T10:40:32.400Z,58.30
2022-08-26T10:41:39.894Z,60.03
2022-08-26T10:42:45.023Z,59.94
2022-08-26T10:43:59.238Z,61.03
2022-08-26T10:45:11.999Z,60.65
2022-08-26T10:46:20.699Z,59.69
2022-08-26T10:47:26.532Z,59.51
2022-08-26T10:48:35.489Z,59.61
2022-08-26T10:49:38.563Z,61.55
2022-08-26T10:50:43.464Z,58.44
2022-08-26T10:51:50.181Z,56.26
2022-08-26T10:53:08.722Z,57.69
2022-08-26T10:54:13.422Z,57.05
2022-08-26T10:55:20.149Z,57.96
2022-08-26T10:56:24.802Z,59.98
2022-08-26T10:57:40.467Z,59.48
2022-08-26T10:58:42.529Z,59.43
2022-08-26T10:59:51.836Z,59.49
2022-08-26T11:01:17.167Z,60.06
2022-08-26T11:02:31.734Z,58.96
2022-08-26T11:03:52.109Z,59.67
2022-08-26T11:04:56.460Z,57.57
2022-08-26T11:06:16.848Z,58.45
2022-08-26T11:07:31.885Z,56.89
2022-08-26T11:08:33.809Z,56.70
2022-08-26T11:09:46.509Z,56.93
2022-08-26T11:10:48.218Z,56.42
2022-08-26T11:11:51.018Z,55.10
2022-08-26T11:12:56.023Z,57.18
2022-08-26T11:13:59.489Z,57.44
2022-08-26T11:15:01.550Z,56.47
2022-08-26T11:16:08.524Z,53.99
2022-08-26T11:17:11.909Z,54.53
2022-08-26T11:18:33.599Z,56.79
2022-08-26T11:19:56.841Z,52.47
2022-08-26T11:20:57.706Z,53.54
2022-08-26T11:22:06.367Z,55.25
2022-08-26T11:23:23.746Z,55.92
2022-08-26T11:24:43.600Z,52.68
2022-08-26T11:26:06.542Z,55.95
2022-08-26T11:27:26.251Z,54.47
2022-08-26T11:28:35.762Z,55.03
2022-08-26T11:29:56.257Z,54.12
2022-08-26T11:30:58.462Z,51.27
2022-08-26T11:32:00.343Z,52.43
2022-08-26T11:33:05.790Z,54.30
2022-08-26T11:34:10.806Z,55.57
2022-08-26T11:35:32.986Z,53.96
2022-08-26T11:36:37.774Z,52.66
2022-08-26T11:37:41.149Z,51.81
2022-08-26T11:38:43.303Z,53.02
2022-08-26T11:39:54.685Z,51.29
2022-08-26T11:41:06.565Z,52.24
2022-08-26T11:42:20.052Z,50.58
2022-08-26T11:43:25.013Z,53.86
2022-08-26T11:44:28.634Z,53.83
2022-08-26T11:45:32.947Z,53.56
2022-08-26T11:46:37.852Z,53.66
2022-08-26T11:47:42.009Z,51.29
2022-08-26T11:48:44.759Z,52.35
2022-08-26T11:49:47.006Z,52.26
2022-08-26T11:50:54.659Z,53.05
2022-08-26T11:52:13.689Z,52.58
2022-08-26T11:53:19.268Z,52.63
2022-08-26T11:54:30.723Z,50.98
2022-08-26T11:55:42.771Z,49.56
2022-08-26T11:56:46.097Z,49.52
2022-08-26T11:57:51.933Z,52.33
2022-08-26T11:58:56.374Z,53.66
2022-08-26T11:59:58.905Z,49.36
2022-08-26T12:01:03.589Z,51.17
2022-08-26T12:02:11.132Z,50.73
2022-08-26T12:03:24.421Z,51.72
2022-08-26T12:04:32.304Z,50.33
2022-08-26T12:05:42.876Z,48.02
2022-08-26T12:06:49.120Z,50.62
2022-08-26T12:07:54.554Z,47.16
2022-08-26T12:09:00.392Z,47.00
2022-08-26T12:10:03.754Z,48.13
2022-08-26T12:11:07.224Z,47.80
2022-08-26T12:12:15.918Z,46.99
2022-08-26T12:13:23.033Z,48.73
2022-08-26T12:14:27.329Z,49.98
2022-08-26T12:15:31.300Z,50.27
2022-08-26T12:16:34.804Z,47.41
2022-08-26T12:17:36.992Z,47.10
2022-08-26T12:18:39.839Z,46.69
2022-08-26T12:19:42.255Z,44.68
2022-08-26T12:20:48.230Z,48.05
2022-08-26T12:21:50.114Z,44.93
2022-08-26T12:22:52.673Z,46.72
2022-08-26T12:23:55.785Z,47.62
2022-08-26T12:24:59.331Z,45.77
2022-08-26T12:26:15.495Z,46.28
2022-08-26T12:27:20.736Z,48.68
2022-08-26T12:28:23.303Z,46.76
2022-08-26T12:29:27.851Z,47.62
2022-08-26T12:30:29.732Z,46.58
2022-08-26T12:31:34.329Z,47.41
2022-08-26T12:32:50.977Z,48.07
2022-08-26T12:34:01.013Z,45.86
2022-08-26T12:36:11.966Z,46.24
2022-08-26T12:37:14.692Z,47.02
2022-08-26T12:38:16.635Z,45.74
2022-08-26T12:39:29.559Z,44.46
2022-08-26T12:40:31.480Z,44.69
2022-08-26T12:41:40.560Z,46.95
2022-08-26T12:42:43.109Z,45.89
2022-08-26T12:43:45.984Z,45.65
2022-08-26T12:45:01.243Z,45.26
2022-08-26T12:46:06.656Z,43.56
2022-08-26T12:47:23.342Z,46.67
2022-08-26T12:48:39.452Z,46.35
2022-08-26T12:49:41.645Z,45.86
2022-08-26T12:50:49.399Z,45.44
2022-08-26T12:51:51.270Z,46.08
2022-08-26T12:53:01.957Z,45.08
2022-08-26T12:54:07.019Z,45.05
2022-08-26T12:55:19.478Z,44.47
2022-08-26T12:56:27.907Z,47.15
2022-08-26T12:57:35.621Z,45.42
2022-08-26T12:58:38.954Z,47.67
2022-08-26T12:59:40.793Z,48.22
2022-08-26T13:00:45.607Z,46.54
2022-08-26T13:01:48.691Z,45.88
2022-08-26T13:02:51.225Z,46.51
2022-08-26T13:03:53.246Z,47.17
2022-08-26T13:05:00.716Z,45.92
2022-08-26T13:06:16.141Z,47.24
2022-08-26T13:07:18.375Z,45.51
2022-08-26T13:08:27.949Z,46.66
2022-08-26T13:09:31.665Z,46.41
2022-08-26T13:10:34.451Z,46.00
2022-08-26T13:11:39.141Z,46.29
2022-08-26T13:12:41.580Z,45.75
2022-08-26T13:13:43.386Z,47.10
2022-08-26T13:14:45.509Z,48.47
2022-08-26T13:15:47.336Z,47.16
2022-08-26T13:16:49.645Z,48.69
2022-08-26T13:17:52.147Z,46.85
2022-08-26T13:18:56.501Z,49.39
2022-08-26T13:20:03.790Z,48.29
2022-08-26T13:21:11.624Z,49.77
2022-08-26T13:22:14.239Z,49.20
2022-08-26T13:23:16.215Z,48.30
2022-08-26T13:24:21.363Z,50.13
2022-08-26T13:25:23.157Z,46.22
2022-08-26T13:26:24.986Z,47.74
2022-08-26T13:27:27.652Z,49.33
2022-08-26T13:28:29.460Z,50.36
2022-08-26T13:29:31.515Z,49.57
2022-08-26T13:30:33.623Z,50.20
2022-08-26T13:31:38.450Z,49.52
2022-08-26T13:32:40.493Z,51.43
2022-08-26T13:33:45.605Z,50.77
2022-08-26T13:34:51.458Z,52.31
2022-08-26T13:35:54.980Z,51.66
2022-08-26T13:36:56.932Z,51.97
2022-08-26T13:37:59.382Z,53.29
2022-08-26T13:39:01.196Z,52.22
2022-08-26T13:40:05.201Z,52.92
2022-08-26T13:41:07.150Z,52.43
2022-08-26T13:42:09.379Z,51.00
2022-08-26T13:43:11.939Z,51.46
2022-08-26T13:44:13.997Z,51.46
2022-08-26T13:45:15.988Z,50.59
2022-08-26T13:46:17.848Z,49.47
2022-08-26T13:47:22.084Z,51.38
2022-08-26T13:48:23.938Z,51.35
2022-08-26T13:49:25.741Z,50.88
2022-08-26T13:50:27.675Z,51.17
2022-08-26T13:51:30.178Z,49.68
2022-08-26T13:52:32.121Z,50.81
2022-08-26T13:53:34.061Z,50.12
2022-08-26T13:54:36.440Z,48.76
2022-08-26T13:55:38.347Z,49.53
2022-08-26T13:56:40.266Z,50.67
2022-08-26T13:57:42.157Z,50.08
2022-08-26T13:58:44.520Z,49.36
2022-08-26T13:59:47.959Z,50.52
2022-08-26T14:00:49.903Z,49.97
2022-08-26T14:01:51.811Z,49.20